createdAt,value
2022-11-27T00:00:40.827Z,10.3571
2022-11-27T00:01:40.857Z,10.6429
2022-11-27T00:02:41.162Z,10
2022-11-27T00:03:41.090Z,9.85714
2022-11-27T00:04:40.970Z,10.6429
2022-11-27T00:05:40.998Z,10
2022-11-27T00:06:41.011Z,10.5
2022-11-27T00:07:41.146Z,10
2022-11-27T00:08:41.083Z,11
2022-11-27T00:09:41.390Z,10.6429
2022-11-27T00:10:41.142Z,10.1429
2022-11-27T00:11:41.172Z,9.14286
2022-11-27T00:12:41.230Z,9
2022-11-27T00:13:41.245Z,9.14286
2022-11-27T00:14:41.270Z,9.5
2022-11-27T00:15:41.361Z,9.14286
2022-11-27T00:16:41.340Z,9.85714
2022-11-27T00:17:41.376Z,9.21429
2022-11-27T00:18:41.405Z,9.35714
2022-11-27T00:19:41.706Z,9.14286
2022-11-27T00:20:41.464Z,9
2022-11-27T00:21:41.492Z,9
2022-11-27T00:22:41.521Z,8.92857
2022-11-27T00:23:41.548Z,9.5
2022-11-27T00:24:41.798Z,9.14286
2022-11-27T00:25:41.614Z,8.85714
2022-11-27T00:26:41.644Z,8.71429
2022-11-27T00:27:41.674Z,9.42857
2022-11-27T00:28:41.698Z,9.14286
2022-11-27T00:29:41.734Z,9.21429
2022-11-27T00:30:41.762Z,8.92857
2022-11-27T00:31:41.881Z,8.5
2022-11-27T00:32:41.828Z,8.35714
2022-11-27T00:33:41.858Z,8.35714
2022-11-27T00:34:42.192Z,8.35714
2022-11-27T00:35:41.915Z,7.42857
2022-11-27T00:36:46.664Z,8.71429
2022-11-27T00:37:41.974Z,8.64286
2022-11-27T00:38:42.012Z,8
2022-11-27T00:39:42.031Z,8.21429
2022-11-27T00:40:42.058Z,7.5
2022-11-27T00:41:42.099Z,7.71429
2022-11-27T00:42:42.134Z,7.42857
2022-11-27T00:43:44.010Z,7.64286
2022-11-27T00:44:42.399Z,7.42857
2022-11-27T00:45:42.248Z,8.21429
2022-11-27T00:46:42.325Z,8.35714
2022-11-27T00:47:42.307Z,8.14286
2022-11-27T00:48:42.342Z,8
2022-11-27T00:49:42.361Z,8.35714
2022-11-27T00:50:42.402Z,7.92857
2022-11-27T00:51:42.423Z,8.21429
2022-11-27T00:52:42.455Z,8.21429
2022-11-27T00:53:42.490Z,7.92857
2022-11-27T00:54:42.664Z,8.14286
2022-11-27T00:55:42.563Z,8.42857
2022-11-27T00:56:42.593Z,8.5
2022-11-27T00:57:42.618Z,8.92857
2022-11-27T00:58:42.659Z,9
2022-11-27T00:59:42.688Z,9.5
2022-11-27T01:00:42.724Z,9.92857
2022-11-27T01:01:42.792Z,9.71429
2022-11-27T01:02:42.845Z,9.42857
2022-11-27T01:03:42.819Z,10.9286
2022-11-27T01:04:42.899Z,9.92857
2022-11-27T01:05:42.894Z,9.85714
2022-11-27T01:06:42.926Z,10.1429
2022-11-27T01:07:43.079Z,10.6429
2022-11-27T01:08:42.985Z,10.8571
2022-11-27T01:09:43.026Z,11
2022-11-27T01:10:43.059Z,10.6429
2022-11-27T01:11:43.096Z,11.3571
2022-11-27T01:12:43.125Z,11.1429
2022-11-27T01:13:43.154Z,11
2022-11-27T01:14:43.184Z,11.4286
2022-11-27T01:15:43.256Z,11.2143
2022-11-27T01:16:43.599Z,11.8571
2022-11-27T01:17:43.283Z,10.9286
2022-11-27T01:18:43.322Z,11.8571
2022-11-27T01:19:43.342Z,10.7143
2022-11-27T01:20:43.369Z,11.2143
2022-11-27T01:21:43.403Z,10.7143
2022-11-27T01:22:43.432Z,10.4286
2022-11-27T01:23:43.466Z,10.9286
2022-11-27T01:24:43.496Z,10.2143
2022-11-27T01:25:43.526Z,11.2143
2022-11-27T01:26:43.575Z,10.5
2022-11-27T01:27:43.599Z,10.5
2022-11-27T01:28:43.639Z,10.7143
2022-11-27T01:29:43.668Z,10.5
2022-11-27T01:30:43.701Z,10.8571
2022-11-27T01:31:43.811Z,9.71429
2022-11-27T01:32:43.760Z,9.85714
2022-11-27T01:33:43.793Z,10
2022-11-27T01:34:43.832Z,11.1429
2022-11-27T01:35:43.857Z,10.6429
2022-11-27T01:36:43.897Z,10.4286
2022-11-27T01:37:43.918Z,10
2022-11-27T01:38:43.954Z,10.3571
2022-11-27T01:39:43.993Z,10.6429
2022-11-27T01:40:44.018Z,10
2022-11-27T01:41:44.053Z,9.92857
2022-11-27T01:42:44.095Z,9.85714
2022-11-27T01:43:44.128Z,10.6429
2022-11-27T01:44:44.159Z,10.1429
2022-11-27T01:45:44.209Z,9.35714
2022-11-27T01:46:44.313Z,10.6429
2022-11-27T01:47:44.246Z,10.6429
2022-11-27T01:48:44.288Z,10.2143
2022-11-27T01:49:44.312Z,10
2022-11-27T01:50:44.342Z,9.35714
2022-11-27T01:51:44.387Z,10.3571
2022-11-27T01:52:44.411Z,9.64286
2022-11-27T01:53:44.445Z,9.42857
2022-11-27T01:54:44.471Z,9.35714
2022-11-27T01:55:44.529Z,9.21429
2022-11-27T01:56:44.542Z,10.1429
2022-11-27T01:57:44.582Z,9.85714
2022-11-27T01:58:44.615Z,10
2022-11-27T01:59:44.653Z,9.92857
2022-11-27T02:00:44.692Z,10.1429
2022-11-27T02:01:44.766Z,9.35714
2022-11-27T02:02:44.854Z,9
2022-11-27T02:03:44.754Z,9.42857
2022-11-27T02:04:44.784Z,9.42857
2022-11-27T02:05:44.815Z,8.92857
2022-11-27T02:06:44.847Z,8.92857
2022-11-27T02:07:44.913Z,9.14286
2022-11-27T02:08:44.910Z,9.42857
2022-11-27T02:09:44.935Z,9.35714
2022-11-27T02:10:44.961Z,10.3571
2022-11-27T02:11:44.990Z,11.1429
2022-11-27T02:12:45.032Z,10.7143
2022-11-27T02:13:45.066Z,11.3571
2022-11-27T02:14:45.092Z,10.1429
2022-11-27T02:15:45.169Z,10.1429
2022-11-27T02:16:45.279Z,9.35714
2022-11-27T02:17:45.177Z,9.21429
2022-11-27T02:18:45.212Z,8.42857
2022-11-27T02:19:45.241Z,8.21429
2022-11-27T02:20:45.271Z,6.71429
2022-11-27T02:21:45.306Z,6.85714
2022-11-27T02:22:45.385Z,7.42857
2022-11-27T02:23:45.365Z,7.64286
2022-11-27T02:24:45.395Z,6.71429
2022-11-27T02:25:45.429Z,6.5
2022-11-27T02:26:45.454Z,7
2022-11-27T02:27:45.480Z,6.14286
2022-11-27T02:28:45.521Z,7.5
2022-11-27T02:29:45.560Z,8.35714
2022-11-27T02:30:45.701Z,8.14286
2022-11-27T02:31:45.733Z,6.92857
2022-11-27T02:32:45.652Z,6
2022-11-27T02:33:45.691Z,5.35714
2022-11-27T02:34:45.731Z,5.92857
2022-11-27T02:35:45.761Z,5.42857
2022-11-27T02:36:45.801Z,5.71429
2022-11-27T02:37:45.826Z,5.21429
2022-11-27T02:38:45.858Z,5.35714
2022-11-27T02:39:45.891Z,4.71429
2022-11-27T02:40:45.929Z,4.64286
2022-11-27T02:41:45.960Z,4.85714
2022-11-27T02:42:45.991Z,5.21429
2022-11-27T02:43:46.023Z,5
2022-11-27T02:44:46.063Z,5
2022-11-27T02:45:46.093Z,4.92857
2022-11-27T02:46:46.164Z,5.35714
2022-11-27T02:47:46.163Z,5.14286
2022-11-27T02:48:46.200Z,4.92857
2022-11-27T02:49:46.233Z,5.35714
2022-11-27T02:50:46.271Z,5.64286
2022-11-27T02:51:46.304Z,5.5
2022-11-27T02:52:46.347Z,5.85714
2022-11-27T02:53:46.385Z,5.35714
2022-11-27T02:54:46.416Z,5.5
2022-11-27T02:55:46.446Z,5.42857
2022-11-27T02:56:46.473Z,5.21429
2022-11-27T02:57:46.525Z,5.64286
2022-11-27T02:58:46.565Z,5.35714
2022-11-27T02:59:46.592Z,5.71429
2022-11-27T03:00:46.643Z,5.64286
2022-11-27T03:01:46.776Z,5.5
2022-11-27T03:02:46.831Z,5.64286
2022-11-27T03:03:46.727Z,6.21429
2022-11-27T03:04:46.763Z,5.92857
2022-11-27T03:05:46.798Z,6
2022-11-27T03:06:46.832Z,6.35714
2022-11-27T03:07:46.935Z,6.85714
2022-11-27T03:08:46.899Z,6.85714
2022-11-27T03:09:46.930Z,7
2022-11-27T03:10:46.955Z,7
2022-11-27T03:11:46.998Z,7.21429
2022-11-27T03:12:47.031Z,7.35714
2022-11-27T03:13:47.054Z,7.42857
2022-11-27T03:14:47.091Z,7.64286
2022-11-27T03:15:47.153Z,7.64286
2022-11-27T03:16:47.151Z,7.14286
2022-11-27T03:17:47.182Z,7.71429
2022-11-27T03:18:47.227Z,8.64286
2022-11-27T03:19:47.257Z,7.92857
2022-11-27T03:20:47.285Z,8.42857
2022-11-27T03:21:47.316Z,8.64286
2022-11-27T03:22:47.345Z,8.5
2022-11-27T03:23:47.379Z,9.14286
2022-11-27T03:24:47.407Z,8.92857
2022-11-27T03:25:47.436Z,8.42857
2022-11-27T03:26:47.463Z,8.92857
2022-11-27T03:27:47.492Z,9.21429
2022-11-27T03:28:47.521Z,9.35714
2022-11-27T03:29:47.559Z,9.42857
2022-11-27T03:30:47.598Z,9.35714
2022-11-27T03:31:47.728Z,10
2022-11-27T03:32:47.657Z,9.64286
2022-11-27T03:33:47.692Z,9.21429
2022-11-27T03:34:47.715Z,10.8571
2022-11-27T03:35:47.755Z,10.3571
2022-11-27T03:36:47.783Z,10.5
2022-11-27T03:37:47.828Z,11
2022-11-27T03:38:47.848Z,10.8571
2022-11-27T03:39:47.874Z,11.5
2022-11-27T03:40:47.895Z,11.5
2022-11-27T03:41:47.924Z,11.2143
2022-11-27T03:42:47.959Z,12
2022-11-27T03:43:47.990Z,11.5
2022-11-27T03:44:48.009Z,10.8571
2022-11-27T03:45:48.053Z,11.1429
2022-11-27T03:46:48.173Z,10.4286
2022-11-27T03:47:48.162Z,11.5
2022-11-27T03:48:48.163Z,11.1429
2022-11-27T03:49:48.195Z,11.3571
2022-11-27T03:50:48.218Z,11.2143
2022-11-27T03:51:48.258Z,11.7143
2022-11-27T03:52:48.292Z,11
2022-11-27T03:53:48.327Z,11.2143
2022-11-27T03:54:48.353Z,10.5
2022-11-27T03:55:48.391Z,11.5
2022-11-27T03:56:48.473Z,11.3571
2022-11-27T03:57:48.453Z,11.1429
2022-11-27T03:58:48.498Z,10.8571
2022-11-27T03:59:48.517Z,11.7143
2022-11-27T04:00:48.555Z,10.9286
2022-11-27T04:01:48.695Z,11.2143
2022-11-27T04:02:48.618Z,11.7143
2022-11-27T04:03:48.682Z,10.7143
2022-11-27T04:04:48.677Z,10.7143
2022-11-27T04:05:48.720Z,11.6429
2022-11-27T04:06:48.747Z,11.1429
2022-11-27T04:07:48.914Z,10.4286
2022-11-27T04:08:48.815Z,10.7143
2022-11-27T04:09:48.835Z,10.5
2022-11-27T04:10:48.860Z,11
2022-11-27T04:11:48.896Z,10.8571
2022-11-27T04:12:48.932Z,10.5
2022-11-27T04:13:48.960Z,11.2143
2022-11-27T04:14:48.999Z,11.1429
2022-11-27T04:15:49.068Z,10.6429
2022-11-27T04:16:49.060Z,10.8571
2022-11-27T04:17:49.085Z,10.5
2022-11-27T04:18:49.121Z,10.3571
2022-11-27T04:19:49.152Z,10.8571
2022-11-27T04:20:49.185Z,10.1429
2022-11-27T04:21:49.204Z,10.5
2022-11-27T04:22:49.236Z,10.5
2022-11-27T04:23:49.274Z,10.7143
2022-11-27T04:24:49.314Z,10.9286
2022-11-27T04:25:49.342Z,10.2143
2022-11-27T04:26:49.375Z,10.8571
2022-11-27T04:27:49.402Z,10.4286
2022-11-27T04:28:49.432Z,9.85714
2022-11-27T04:29:49.473Z,9.64286
2022-11-27T04:30:49.492Z,10.2143
2022-11-27T04:31:49.563Z,10.9286
2022-11-27T04:32:49.561Z,10.4286
2022-11-27T04:33:49.582Z,9.92857
2022-11-27T04:34:49.611Z,10.8571
2022-11-27T04:35:49.643Z,10.1429
2022-11-27T04:36:49.680Z,10
2022-11-27T04:37:49.710Z,10.3571
2022-11-27T04:38:49.745Z,10.9286
2022-11-27T04:39:49.778Z,9.85714
2022-11-27T04:40:49.807Z,10.1429
2022-11-27T04:41:49.836Z,12
2022-11-27T04:42:49.867Z,9.85714
2022-11-27T04:43:49.887Z,10
2022-11-27T04:44:49.920Z,10.9286
2022-11-27T04:45:49.956Z,10.9286
2022-11-27T04:46:50.124Z,10.5
2022-11-27T04:47:50.027Z,10.5
2022-11-27T04:48:50.071Z,10
2022-11-27T04:49:50.103Z,10.8571
2022-11-27T04:50:50.132Z,10.1429
2022-11-27T04:51:50.179Z,10.2143
2022-11-27T04:52:50.226Z,10.3571
2022-11-27T04:53:53.256Z,10.7143
2022-11-27T04:54:52.300Z,10.7143
2022-11-27T04:55:50.299Z,10.7143
2022-11-27T04:56:50.345Z,11.3571
2022-11-27T04:57:50.358Z,10.5
2022-11-27T04:58:50.379Z,11.1429
2022-11-27T04:59:50.407Z,10.7143
2022-11-27T05:00:50.482Z,10.1429
2022-11-27T05:01:50.549Z,10.1429
2022-11-27T05:02:50.590Z,11
2022-11-27T05:03:50.540Z,11.1429
2022-11-27T05:04:50.573Z,10.4286
2022-11-27T05:05:50.595Z,10.8571
2022-11-27T05:06:50.627Z,11.3571
2022-11-27T05:07:50.750Z,11.4286
2022-11-27T05:08:50.696Z,11.3571
2022-11-27T05:09:50.735Z,11
2022-11-27T05:10:50.771Z,11.1429
2022-11-27T05:11:50.809Z,11.7143
2022-11-27T05:12:50.843Z,10.3571
2022-11-27T05:13:50.868Z,10.3571
2022-11-27T05:14:50.900Z,10.7143
2022-11-27T05:15:50.967Z,10.6429
2022-11-27T05:16:50.985Z,10.7143
2022-11-27T05:17:51.013Z,11.3571
2022-11-27T05:18:51.037Z,10.7143
2022-11-27T05:19:51.070Z,11.6429
2022-11-27T05:20:51.103Z,11.3571
2022-11-27T05:21:51.135Z,10.9286
2022-11-27T05:22:51.175Z,10.8571
2022-11-27T05:23:51.207Z,9.85714
2022-11-27T05:24:51.233Z,10.7143
2022-11-27T05:25:51.266Z,9.64286
2022-11-27T05:26:51.298Z,10.2143
2022-11-27T05:27:51.323Z,9.14286
2022-11-27T05:28:51.352Z,9.21429
2022-11-27T05:29:51.388Z,10.3571
2022-11-27T05:30:51.418Z,10.4286
2022-11-27T05:31:51.503Z,9.5
2022-11-27T05:32:51.479Z,9.21429
2022-11-27T05:33:51.510Z,9.5
2022-11-27T05:34:51.542Z,9.5
2022-11-27T05:35:51.572Z,9.21429
2022-11-27T05:36:51.595Z,8.64286
2022-11-27T05:37:51.625Z,8.71429
2022-11-27T05:38:51.662Z,9.14286
2022-11-27T05:39:51.683Z,9.64286
2022-11-27T05:40:51.718Z,9.42857
2022-11-27T05:41:51.757Z,9.85714
2022-11-27T05:42:51.780Z,9.85714
2022-11-27T05:43:51.830Z,9
2022-11-27T05:44:56.732Z,9.21429
2022-11-27T05:45:51.884Z,9.92857
2022-11-27T05:46:52.067Z,9.5
2022-11-27T05:47:51.955Z,9.5
2022-11-27T05:48:51.987Z,9.42857
2022-11-27T05:49:52.040Z,10.2143
2022-11-27T05:50:52.050Z,9.85714
2022-11-27T05:51:52.135Z,10.2143
2022-11-27T05:52:52.127Z,9.71429
2022-11-27T05:53:52.141Z,9.35714
2022-11-27T05:54:52.192Z,9.35714
2022-11-27T05:55:52.197Z,9.64286
2022-11-27T05:56:52.232Z,10.2143
2022-11-27T05:57:52.258Z,8.92857
2022-11-27T05:58:52.300Z,9.64286
2022-11-27T05:59:52.325Z,9.92857
2022-11-27T06:00:52.366Z,10.2143
2022-11-27T06:01:52.440Z,9.92857
2022-11-27T06:02:52.575Z,10.8571
2022-11-27T06:03:52.545Z,11.5
2022-11-27T06:04:52.477Z,10
2022-11-27T06:05:52.507Z,10.6429
2022-11-27T06:06:52.534Z,10.7143
2022-11-27T06:07:52.640Z,11.1429
2022-11-27T06:08:52.594Z,11.1429
2022-11-27T06:09:52.627Z,10.4286
2022-11-27T06:10:52.675Z,10.5
2022-11-27T06:11:52.712Z,11.3571
2022-11-27T06:12:52.743Z,10.9286
2022-11-27T06:13:52.777Z,12
2022-11-27T06:14:52.812Z,11.8571
2022-11-27T06:15:52.839Z,11.2143
2022-11-27T06:16:52.891Z,11.6429
2022-11-27T06:17:52.902Z,12.1429
2022-11-27T06:18:52.934Z,11.6429
2022-11-27T06:19:52.968Z,12.9286
2022-11-27T06:20:53.241Z,12.5
2022-11-27T06:21:53.051Z,12.7143
2022-11-27T06:22:53.095Z,12.8571
2022-11-27T06:23:53.131Z,13.5
2022-11-27T06:24:53.156Z,14.6429
2022-11-27T06:25:53.189Z,13.6429
2022-11-27T06:26:53.223Z,13.6429
2022-11-27T06:27:53.262Z,13.9286
2022-11-27T06:28:53.291Z,13.9286
2022-11-27T06:29:53.329Z,13.3571
2022-11-27T06:30:53.391Z,13.2143
2022-11-27T06:31:53.525Z,12.9286
2022-11-27T06:32:53.425Z,13
2022-11-27T06:33:53.455Z,14.2143
2022-11-27T06:34:53.483Z,13.5
2022-11-27T06:35:53.520Z,13.1429
2022-11-27T06:36:53.556Z,13.2143
2022-11-27T06:37:53.590Z,13.5
2022-11-27T06:38:53.627Z,13.1429
2022-11-27T06:39:53.651Z,14
2022-11-27T06:40:53.685Z,12.9286
2022-11-27T06:41:53.700Z,14.3571
2022-11-27T06:42:53.735Z,14.3571
2022-11-27T06:43:53.775Z,13.8571
2022-11-27T06:44:53.798Z,15.4286
2022-11-27T06:45:53.863Z,14.4286
2022-11-27T06:46:53.873Z,15.2143
2022-11-27T06:47:53.897Z,15.8571
2022-11-27T06:48:53.934Z,15.9286
2022-11-27T06:49:53.965Z,15.6429
2022-11-27T06:50:53.994Z,15.3571
2022-11-27T06:51:54.034Z,15.8571
2022-11-27T06:52:54.057Z,16.7143
2022-11-27T06:53:54.088Z,16.1429
2022-11-27T06:54:54.126Z,16.2143
2022-11-27T06:55:54.165Z,16.1429
2022-11-27T06:56:54.191Z,17.4286
2022-11-27T06:57:54.222Z,16.3571
2022-11-27T06:58:54.262Z,17.1429
2022-11-27T06:59:54.284Z,16.2143
2022-11-27T07:00:54.351Z,16.3571
2022-11-27T07:01:54.415Z,15.8571
2022-11-27T07:02:54.376Z,16.7143
2022-11-27T07:03:54.403Z,16.8571
2022-11-27T07:04:54.434Z,16.2143
2022-11-27T07:05:54.471Z,16.3571
2022-11-27T07:06:54.493Z,16.5
2022-11-27T07:07:54.605Z,17.4286
2022-11-27T07:08:54.555Z,16.5
2022-11-27T07:09:54.607Z,16
2022-11-27T07:10:54.616Z,15.2143
2022-11-27T07:11:54.649Z,15.8571
2022-11-27T07:12:54.684Z,15.9286
2022-11-27T07:13:54.711Z,16.1429
2022-11-27T07:14:54.740Z,16.6429
2022-11-27T07:15:54.964Z,16.7143
2022-11-27T07:16:54.921Z,16.7143
2022-11-27T07:17:54.830Z,17.7143
2022-11-27T07:18:54.863Z,17.5
2022-11-27T07:19:54.901Z,17.3571
2022-11-27T07:20:56.635Z,16.6429
2022-11-27T07:21:54.960Z,16.2143
2022-11-27T07:22:55.013Z,16.7143
2022-11-27T07:23:55.028Z,17.1429
2022-11-27T07:24:55.061Z,17.2143
2022-11-27T07:25:55.082Z,17.5
2022-11-27T07:26:55.107Z,16.8571
2022-11-27T07:27:55.150Z,15.8571
2022-11-27T07:28:55.175Z,16.4286
2022-11-27T07:29:55.217Z,16.2143
2022-11-27T07:30:55.246Z,16.9286
2022-11-27T07:31:55.338Z,16.2143
2022-11-27T07:32:55.304Z,16.5
2022-11-27T07:33:55.333Z,17.7143
2022-11-27T07:34:55.374Z,18.5
2022-11-27T07:35:55.407Z,17.9286
2022-11-27T07:36:55.499Z,18.8571
2022-11-27T07:37:55.456Z,18.2143
2022-11-27T07:38:55.491Z,17.9286
2022-11-27T07:40:02.307Z,17.8571
2022-11-27T07:40:55.545Z,17.3571
2022-11-27T07:41:59.856Z,17.2143
2022-11-27T07:42:55.591Z,17
2022-11-27T07:43:55.625Z,18.8571
2022-11-27T07:44:55.652Z,16.1429
2022-11-27T07:45:55.748Z,17.6429
2022-11-27T07:46:55.701Z,16.6429
2022-11-27T07:47:55.744Z,17
2022-11-27T07:48:55.783Z,16.3571
2022-11-27T07:49:55.804Z,15.8571
2022-11-27T07:50:55.830Z,16.2143
2022-11-27T07:51:55.863Z,16.3571
2022-11-27T07:52:55.904Z,16.7143
2022-11-27T07:53:55.932Z,16.2143
2022-11-27T07:54:55.970Z,15.4286
2022-11-27T07:55:56.001Z,15.2143
2022-11-27T07:56:56.037Z,15.5
2022-11-27T07:57:56.060Z,16.3571
2022-11-27T07:58:56.090Z,15.6429
2022-11-27T07:59:56.125Z,15.3571
2022-11-27T08:00:56.205Z,14.7143
2022-11-27T08:01:56.193Z,15.2143
2022-11-27T08:02:56.235Z,15.4286
2022-11-27T08:03:56.265Z,14.5
2022-11-27T08:04:56.347Z,15.2143
2022-11-27T08:05:56.321Z,15.3571
2022-11-27T08:06:56.360Z,15.8571
2022-11-27T08:07:56.463Z,15.4286
2022-11-27T08:08:56.421Z,14.9286
2022-11-27T08:09:56.447Z,15.7143
2022-11-27T08:10:56.477Z,15.4286
2022-11-27T08:11:56.517Z,15.4286
2022-11-27T08:12:56.536Z,16.6429
2022-11-27T08:13:56.585Z,16.2143
2022-11-27T08:14:56.614Z,15.1429
2022-11-27T08:15:56.709Z,14.7143
2022-11-27T08:16:56.748Z,15.4286
2022-11-27T08:17:56.704Z,16
2022-11-27T08:18:56.734Z,16.7143
2022-11-27T08:19:56.764Z,16
2022-11-27T08:20:56.800Z,15
2022-11-27T08:21:56.925Z,15.6429
2022-11-27T08:23:02.346Z,15.1429
2022-11-27T08:23:56.890Z,15.6429
2022-11-27T08:24:56.929Z,15.5
2022-11-27T08:25:56.961Z,16.1429
2022-11-27T08:26:57.071Z,16.2143
2022-11-27T08:27:57.017Z,15.9286
2022-11-27T08:28:57.047Z,15.3571
2022-11-27T08:29:57.082Z,15.3571
2022-11-27T08:30:57.110Z,15.2143
2022-11-27T08:31:57.217Z,15.2143
2022-11-27T08:32:57.170Z,15.8571
2022-11-27T08:33:57.202Z,15.4286
2022-11-27T08:34:57.241Z,15.2143
2022-11-27T08:35:57.273Z,15.1429
2022-11-27T08:36:57.309Z,14.8571
2022-11-27T08:37:57.345Z,15.4286
2022-11-27T08:38:57.379Z,15.5
2022-11-27T08:39:57.408Z,15.5
2022-11-27T08:40:57.429Z,14
2022-11-27T08:41:57.476Z,14.1429
2022-11-27T08:42:57.487Z,14
2022-11-27T08:43:57.521Z,14.5
2022-11-27T08:44:57.548Z,14.3571
2022-11-27T08:45:57.672Z,14.4286
2022-11-27T08:46:57.620Z,13.4286
2022-11-27T08:47:57.659Z,13.9286
2022-11-27T08:48:57.663Z,13.9286
2022-11-27T08:49:57.696Z,13.4286
2022-11-27T08:50:57.734Z,14.5
2022-11-27T08:51:57.762Z,13.6429
2022-11-27T08:52:57.787Z,13.7143
2022-11-27T08:53:57.814Z,13.9286
2022-11-27T08:54:58.189Z,13.8571
2022-11-27T08:55:57.870Z,13.9286
2022-11-27T08:56:57.906Z,13.1429
2022-11-27T08:57:57.933Z,13.8571
2022-11-27T08:58:57.970Z,13.2143
2022-11-27T08:59:57.997Z,12.8571
2022-11-27T09:00:58.069Z,13.8571
2022-11-27T09:01:58.057Z,14.3571
2022-11-27T09:02:58.096Z,14.4286
2022-11-27T09:03:58.152Z,13.6429
2022-11-27T09:04:58.159Z,13.9286
2022-11-27T09:05:58.193Z,13.7143
2022-11-27T09:06:58.863Z,13.4286
2022-11-27T09:07:58.339Z,14
2022-11-27T09:08:58.276Z,13.2143
2022-11-27T09:09:58.295Z,12.9286
2022-11-27T09:10:58.328Z,13.6429
2022-11-27T09:11:58.353Z,13.9286
2022-11-27T09:12:58.390Z,13.4286
2022-11-27T09:13:58.417Z,13.2143
2022-11-27T09:14:58.452Z,13.9286
2022-11-27T09:15:58.477Z,13.7143
2022-11-27T09:16:58.577Z,12.8571
2022-11-27T09:17:58.542Z,13.5
2022-11-27T09:18:58.589Z,13.5
2022-11-27T09:19:58.605Z,13.2143
2022-11-27T09:20:58.630Z,13.3571
2022-11-27T09:21:58.662Z,13
2022-11-27T09:22:58.685Z,14.2143
2022-11-27T09:23:58.725Z,14
2022-11-27T09:24:58.745Z,12.4286
2022-11-27T09:25:58.769Z,14.1429
2022-11-27T09:26:58.796Z,12.9286
2022-11-27T09:27:58.832Z,12.5
2022-11-27T09:28:58.866Z,12.2143
2022-11-27T09:29:58.914Z,13
2022-11-27T09:30:58.928Z,13.6429
2022-11-27T09:31:59.066Z,13
2022-11-27T09:32:58.995Z,13.3571
2022-11-27T09:33:59.029Z,12.5
2022-11-27T09:34:59.088Z,12.6429
2022-11-27T09:35:59.112Z,13.6429
2022-11-27T09:36:59.128Z,12.8571
2022-11-27T09:37:59.163Z,12.4286
2022-11-27T09:38:59.190Z,12.7143
2022-11-27T09:39:59.220Z,13.1429
2022-11-27T09:41:02.824Z,12.4286
2022-11-27T09:41:59.273Z,12.8571
2022-11-27T09:42:59.303Z,12.3571
2022-11-27T09:43:59.354Z,12.8571
2022-11-27T09:44:59.370Z,12.1429
2022-11-27T09:45:59.630Z,12.7143
2022-11-27T09:46:59.449Z,12.6429
2022-11-27T09:47:59.480Z,12.6429
2022-11-27T09:48:59.499Z,12.5
2022-11-27T09:49:59.535Z,12.8571
2022-11-27T09:50:59.586Z,12
2022-11-27T09:51:59.608Z,12.6429
2022-11-27T09:52:59.623Z,11.6429
2022-11-27T09:53:59.663Z,12.5
2022-11-27T09:54:59.692Z,12.2143
2022-11-27T09:55:59.748Z,12.8571
2022-11-27T09:56:59.745Z,12.4286
2022-11-27T09:57:59.770Z,12.8571
2022-11-27T09:58:59.804Z,12.6429
2022-11-27T09:59:59.831Z,12.1429
2022-11-27T10:00:59.865Z,12
2022-11-27T10:02:00.072Z,12.3571
2022-11-27T10:03:00.141Z,11.9286
2022-11-27T10:03:59.970Z,12.4286
2022-11-27T10:05:13.351Z,12.4286
2022-11-27T10:06:00.032Z,12.2143
2022-11-27T10:07:00.068Z,12.2143
2022-11-27T10:08:06.033Z,11.9286
2022-11-27T10:09:00.134Z,12.9286
2022-11-27T10:10:00.188Z,12.4286
2022-11-27T10:11:00.203Z,12.1429
2022-11-27T10:12:00.231Z,12.8571
2022-11-27T10:13:00.250Z,12.4286
2022-11-27T10:14:00.282Z,11.6429
2022-11-27T10:15:00.314Z,12.1429
2022-11-27T10:16:00.349Z,12.3571
2022-11-27T10:17:00.431Z,12.5
2022-11-27T10:18:00.422Z,12.9286
2022-11-27T10:19:00.447Z,11.9286
2022-11-27T10:20:00.472Z,11.8571
2022-11-27T10:21:00.511Z,10.8571
2022-11-27T10:22:00.541Z,11.9286
2022-11-27T10:23:00.581Z,12.4286
2022-11-27T10:24:00.606Z,11.6429
2022-11-27T10:25:00.660Z,11.8571
2022-11-27T10:26:00.675Z,11.6429
2022-11-27T10:27:00.697Z,12
2022-11-27T10:28:00.740Z,11.8571
2022-11-27T10:29:00.776Z,11.9286
2022-11-27T10:30:00.797Z,11.6429
2022-11-27T10:31:00.835Z,12
2022-11-27T10:32:00.984Z,11.9286
2022-11-27T10:33:00.902Z,11.4286
2022-11-27T10:34:00.922Z,11.4286
2022-11-27T10:35:00.969Z,11.4286
2022-11-27T10:36:00.989Z,11.1429
2022-11-27T10:37:01.048Z,11
2022-11-27T10:38:06.316Z,11.5
2022-11-27T10:39:01.107Z,11.6429
2022-11-27T10:40:01.117Z,11.3571
2022-11-27T10:41:01.148Z,11.1429
2022-11-27T10:42:01.193Z,11.2143
2022-11-27T10:43:01.212Z,11.4286
2022-11-27T10:44:01.928Z,11.5
2022-11-27T10:45:01.286Z,10.5
2022-11-27T10:46:01.378Z,11.6429
2022-11-27T10:47:01.344Z,10.6429
2022-11-27T10:48:01.381Z,10.5
2022-11-27T10:49:01.408Z,10.4286
2022-11-27T10:50:01.471Z,10.8571
2022-11-27T10:51:01.479Z,11.1429
2022-11-27T10:52:01.504Z,11.2143
2022-11-27T10:53:01.550Z,10.3571
2022-11-27T10:54:01.600Z,10.6429
2022-11-27T10:55:01.599Z,12
2022-11-27T10:56:01.664Z,10.4286
2022-11-27T10:57:01.670Z,10.5
2022-11-27T10:58:01.699Z,10.8571
2022-11-27T10:59:01.740Z,10.7143
2022-11-27T11:00:01.763Z,11
2022-11-27T11:01:01.928Z,11.1429
2022-11-27T11:02:01.948Z,10.6429
2022-11-27T11:03:01.849Z,10.9286
2022-11-27T11:04:10.165Z,10.2143
2022-11-27T11:05:30.799Z,10.5
2022-11-27T11:06:19.867Z,11.4286
2022-11-27T11:07:01.976Z,10.8571
2022-11-27T11:08:02.009Z,10.5
2022-11-27T11:09:02.070Z,10.3571
2022-11-27T11:10:02.105Z,10.5
2022-11-27T11:11:02.128Z,10.6429
2022-11-27T11:12:02.145Z,10.3571
2022-11-27T11:13:02.184Z,10.5
2022-11-27T11:14:02.218Z,10.9286
2022-11-27T11:15:08.146Z,10.4286
2022-11-27T11:16:10.937Z,10.8571
2022-11-27T11:16:55.748Z,10.4286
2022-11-27T11:17:35.635Z,10.1429
2022-11-27T11:18:35.654Z,9.92857
2022-11-27T11:19:35.684Z,10.6429
2022-11-27T11:19:44.682Z,10.5
2022-11-27T11:20:44.717Z,10.4286
2022-11-27T11:21:44.743Z,9.92857
2022-11-27T11:22:44.776Z,9.35714
2022-11-27T11:23:44.813Z,10.6429
2022-11-27T11:24:44.853Z,10.1429
2022-11-27T11:25:44.881Z,10.1429
2022-11-27T11:26:44.914Z,10.5
2022-11-27T11:27:44.941Z,11
2022-11-27T11:28:44.971Z,10.2143
2022-11-27T11:29:45.006Z,10.7143
2022-11-27T11:30:45.034Z,9.85714
2022-11-27T11:31:45.127Z,9.85714
2022-11-27T11:32:45.099Z,9.64286
2022-11-27T11:33:45.122Z,9.5
2022-11-27T11:34:45.150Z,9.64286
2022-11-27T11:35:45.182Z,10.1429
2022-11-27T11:36:45.222Z,9.85714
2022-11-27T11:37:45.245Z,9.42857
2022-11-27T11:38:45.277Z,9.5
2022-11-27T11:39:45.315Z,9
2022-11-27T11:40:45.333Z,9.35714
2022-11-27T11:41:45.361Z,9
2022-11-27T11:42:45.388Z,9.71429
2022-11-27T11:43:45.420Z,9.5
2022-11-27T11:44:45.447Z,9.64286
2022-11-27T11:45:45.533Z,9.14286
2022-11-27T11:46:45.521Z,9.35714
2022-11-27T11:47:45.551Z,9.14286
2022-11-27T11:48:45.584Z,9.5
2022-11-27T11:49:45.614Z,9.5
2022-11-27T11:50:45.646Z,9.85714
2022-11-27T11:51:45.676Z,9.35714
2022-11-27T11:52:45.696Z,8.92857
2022-11-27T11:53:45.771Z,9.14286
2022-11-27T11:54:45.756Z,9.42857
2022-11-27T11:55:45.782Z,8.5
2022-11-27T11:56:45.815Z,9.21429
2022-11-27T11:57:45.854Z,8.71429
2022-11-27T11:58:45.880Z,8.92857
2022-11-27T11:59:45.913Z,9.42857
2022-11-27T12:01:18.933Z,8.64286
2022-11-27T12:01:46.013Z,9
2022-11-27T12:02:46.141Z,9.21429
2022-11-27T12:03:46.018Z,9.5
2022-11-27T12:04:46.082Z,8.71429
2022-11-27T12:05:46.082Z,9.35714
2022-11-27T12:06:46.111Z,9.14286
2022-11-27T12:07:50.660Z,9.35714
2022-11-27T12:08:46.182Z,8.92857
2022-11-27T12:09:46.203Z,9.14286
2022-11-27T12:10:46.231Z,9.42857
2022-11-27T12:11:46.256Z,8.92857
2022-11-27T12:12:46.284Z,8.92857
2022-11-27T12:13:46.320Z,9
2022-11-27T12:14:46.362Z,8.5
2022-11-27T12:15:46.391Z,9.42857
2022-11-27T12:16:46.506Z,8.5
2022-11-27T12:17:46.458Z,8.71429
2022-11-27T12:18:46.489Z,9.92857
2022-11-27T12:19:46.513Z,9.21429
2022-11-27T12:20:46.546Z,8.71429
2022-11-27T12:21:46.582Z,9.5
2022-11-27T12:22:46.612Z,8.85714
2022-11-27T12:23:46.650Z,8.71429